createdAt,value
2018-09-30T00:00:05.123Z,31.2
2018-09-30T00:02:05.827Z,31.3
2018-09-30T00:04:05.509Z,31.2
2018-09-30T00:06:10.308Z,31.1
2018-09-30T00:08:05.984Z,31.3
2018-09-30T00:10:05.165Z,31.3
2018-09-30T00:12:05.813Z,31
2018-09-30T00:14:05.541Z,31.2
2018-09-30T00:16:05.281Z,31.3
2018-09-30T00:18:05.168Z,31.2
2018-09-30T00:20:08.462Z,31.2
2018-09-30T00:22:05.181Z,31.2
2018-09-30T00:24:05.393Z,31.1
2018-09-30T00:26:05.148Z,31.1
2018-09-30T00:28:05.909Z,31.3
2018-09-30T00:30:05.622Z,31.2
2018-09-30T00:32:05.353Z,31.2
2018-09-30T00:34:07.617Z,31.1
2018-09-30T00:36:05.534Z,31.1
2018-09-30T00:38:05.338Z,31.2
2018-09-30T00:40:07.700Z,31
2018-09-30T00:42:13.059Z,31.2
2018-09-30T00:44:05.265Z,31
2018-09-30T00:46:08.534Z,31.3
2018-09-30T00:48:05.301Z,31.3
2018-09-30T00:50:08.543Z,31.1
2018-09-30T00:52:05.211Z,31.1
2018-09-30T00:54:05.960Z,31.2
2018-09-30T00:56:05.637Z,31.1
2018-09-30T00:58:05.911Z,31.1
2018-09-30T01:00:05.627Z,31.2
2018-09-30T01:02:05.363Z,30.9
2018-09-30T01:04:05.086Z,31.2
2018-09-30T01:06:05.774Z,31
2018-09-30T01:08:05.534Z,31
2018-09-30T01:10:06.058Z,31
2018-09-30T01:12:05.788Z,31
2018-09-30T01:14:07.550Z,31.1
2018-09-30T01:16:05.241Z,31.1
2018-09-30T01:18:05.279Z,31
2018-09-30T01:20:05.096Z,31
2018-09-30T01:22:05.838Z,31.1
2018-09-30T01:24:05.044Z,31.1
2018-09-30T01:26:05.741Z,31
2018-09-30T01:28:05.501Z,30.9
2018-09-30T01:30:05.787Z,31
2018-09-30T01:32:06.039Z,30.9
2018-09-30T01:34:07.764Z,30.7
2018-09-30T01:36:05.455Z,30.7
2018-09-30T01:38:10.283Z,30.8
2018-09-30T01:40:07.611Z,30.7
2018-09-30T01:42:05.500Z,30.7
2018-09-30T01:44:05.258Z,30.6
2018-09-30T01:46:05.498Z,30.6
2018-09-30T01:48:05.907Z,30.6
2018-09-30T01:50:05.645Z,30.6
2018-09-30T01:52:05.390Z,30.5
2018-09-30T01:54:05.608Z,30.5
2018-09-30T01:56:05.360Z,30.4
2018-09-30T01:58:07.583Z,30.5
2018-09-30T02:00:05.329Z,30.5
2018-09-30T02:02:07.539Z,30.3
2018-09-30T02:04:05.189Z,30.3
2018-09-30T02:06:05.863Z,30.2
2018-09-30T02:08:05.618Z,30.4
2018-09-30T02:10:05.318Z,30.1
2018-09-30T02:12:04.994Z,30.1
2018-09-30T02:14:05.209Z,30.4
2018-09-30T02:16:05.950Z,30.3
2018-09-30T02:18:07.915Z,30
2018-09-30T02:20:05.641Z,30
2018-09-30T02:22:05.361Z,30.1
2018-09-30T02:24:05.095Z,30
2018-09-30T02:26:05.439Z,30.2
2018-09-30T02:28:05.179Z,30
2018-09-30T02:30:05.583Z,30
2018-09-30T02:32:05.300Z,30.1
2018-09-30T02:34:05.959Z,30
2018-09-30T02:36:05.750Z,30
2018-09-30T02:38:08.012Z,29.9
2018-09-30T02:40:18.394Z,29.9
2018-09-30T02:42:05.208Z,29.9
2018-09-30T02:44:05.940Z,29.9
2018-09-30T02:46:05.701Z,29.9
2018-09-30T02:48:05.401Z,29.8
2018-09-30T02:50:10.241Z,29.9
2018-09-30T02:52:05.936Z,29.8
2018-09-30T02:54:07.732Z,29.7
2018-09-30T02:56:05.415Z,29.7
2018-09-30T02:58:05.617Z,30
2018-09-30T03:00:05.352Z,29.9
2018-09-30T03:02:05.130Z,30
2018-09-30T03:04:05.881Z,30
2018-09-30T03:06:05.141Z,29.8
2018-09-30T03:08:05.834Z,29.9
2018-09-30T03:10:05.542Z,29.8
2018-09-30T03:12:05.765Z,29.7
2018-09-30T03:14:05.541Z,29.9
2018-09-30T03:16:05.316Z,29.7
2018-09-30T03:18:05.791Z,29.9
2018-09-30T03:20:05.575Z,29.7
2018-09-30T03:22:05.284Z,29.7
2018-09-30T03:24:10.111Z,29.6
2018-09-30T03:26:05.881Z,29.6
2018-09-30T03:28:08.099Z,29.5
2018-09-30T03:30:05.860Z,29.6
2018-09-30T03:32:08.132Z,29.5
2018-09-30T03:34:10.969Z,29.7
2018-09-30T03:36:05.286Z,29.7
2018-09-30T03:38:06.018Z,29.5
2018-09-30T03:40:08.214Z,29.5
2018-09-30T03:42:05.961Z,29.5
2018-09-30T03:44:10.785Z,29.5
2018-09-30T03:46:05.557Z,29.5
2018-09-30T03:48:07.730Z,29.4
2018-09-30T03:50:08.561Z,29.5
2018-09-30T03:52:07.878Z,29.4
2018-09-30T03:54:05.105Z,29.4
2018-09-30T03:56:05.826Z,29.5
2018-09-30T03:58:05.040Z,29.4
2018-09-30T04:00:05.788Z,29.4
2018-09-30T04:02:08.108Z,29.5
2018-09-30T04:04:08.315Z,29.5
2018-09-30T04:06:05.088Z,29.5
2018-09-30T04:08:05.833Z,29.5
2018-09-30T04:10:05.927Z,29.5
2018-09-30T04:12:05.767Z,29.5
2018-09-30T04:14:08.517Z,29.5
2018-09-30T04:16:05.266Z,29.4
2018-09-30T04:18:05.158Z,29.5
2018-09-30T04:20:05.840Z,29.4
2018-09-30T04:22:05.592Z,29.4
2018-09-30T04:24:05.270Z,29.4
2018-09-30T04:26:05.043Z,29.4
2018-09-30T04:28:05.921Z,29.4
2018-09-30T04:30:05.652Z,29.4
2018-09-30T04:32:05.418Z,29.4
2018-09-30T04:34:08.696Z,29.4
2018-09-30T04:36:09.244Z,29.4
2018-09-30T04:38:05.683Z,29.4
2018-09-30T04:40:05.365Z,29.4
2018-09-30T04:42:05.043Z,29.4
2018-09-30T04:44:05.755Z,29.4
2018-09-30T04:46:05.481Z,29.4
2018-09-30T04:48:05.160Z,29.4
2018-09-30T04:50:06.124Z,29.4
2018-09-30T04:52:05.086Z,29.4
2018-09-30T04:54:05.844Z,29.4
2018-09-30T04:56:05.571Z,29.4
2018-09-30T04:58:07.793Z,29.2
2018-09-30T05:00:08.022Z,29.2
2018-09-30T05:02:08.379Z,29.2
2018-09-30T05:04:05.073Z,29.2
2018-09-30T05:06:05.278Z,29.2
2018-09-30T05:08:05.135Z,29.2
2018-09-30T05:10:08.382Z,29.2
2018-09-30T05:12:05.056Z,29.2
2018-09-30T05:14:05.772Z,29.2
2018-09-30T05:16:05.649Z,29.4
2018-09-30T05:18:05.712Z,29.2
2018-09-30T05:20:05.459Z,29.4
2018-09-30T05:22:05.200Z,29.4
2018-09-30T05:24:05.922Z,29.4
2018-09-30T05:26:05.682Z,29.4
2018-09-30T05:28:05.430Z,29.4
2018-09-30T05:30:07.652Z,29
2018-09-30T05:32:05.421Z,29.2
2018-09-30T05:34:05.139Z,29
2018-09-30T05:36:05.348Z,29.2
2018-09-30T05:38:05.016Z,29
2018-09-30T05:40:05.693Z,29
2018-09-30T05:42:05.483Z,29
2018-09-30T05:44:05.158Z,29.2
2018-09-30T05:46:05.392Z,29.2
2018-09-30T05:48:05.100Z,29.2
2018-09-30T05:50:05.953Z,29.2
2018-09-30T05:52:10.698Z,29.2
2018-09-30T05:54:05.984Z,29.2
2018-09-30T05:56:05.757Z,29.4
2018-09-30T05:58:05.757Z,29.4
2018-09-30T06:00:13.421Z,29.4
2018-09-30T06:02:07.642Z,29.4
2018-09-30T06:04:05.783Z,29.4
2018-09-30T06:06:05.180Z,29.5
2018-09-30T06:08:07.629Z,29.5
2018-09-30T06:10:05.411Z,29.5
2018-09-30T06:12:10.709Z,29.7
2018-09-30T06:14:05.644Z,29.7
2018-09-30T06:16:06.153Z,29.6
2018-09-30T06:18:05.383Z,29.6
2018-09-30T06:20:05.617Z,29.6
2018-09-30T06:22:05.334Z,29.5
2018-09-30T06:24:05.261Z,29.4
2018-09-30T06:26:05.188Z,29.5
2018-09-30T06:28:08.406Z,29.5
2018-09-30T06:30:05.775Z,29.6
2018-09-30T06:32:08.236Z,29.4
2018-09-30T06:34:05.212Z,29.4
2018-09-30T06:36:06.075Z,29.5
2018-09-30T06:38:08.332Z,29.5
2018-09-30T06:40:05.973Z,29.4
2018-09-30T06:42:05.727Z,29.2
2018-09-30T06:44:08.044Z,29.3
2018-09-30T06:46:05.778Z,29.2
2018-09-30T06:48:05.466Z,29.3
2018-09-30T06:50:07.658Z,29.2
2018-09-30T06:52:05.882Z,29.2
2018-09-30T06:54:05.579Z,29.3
2018-09-30T06:56:05.270Z,29.3
2018-09-30T06:58:05.475Z,29.4
2018-09-30T07:00:05.862Z,29.3
2018-09-30T07:02:05.586Z,29.2
2018-09-30T07:04:05.324Z,29.2
2018-09-30T07:06:05.043Z,29.3
2018-09-30T07:08:08.243Z,29.3
2018-09-30T07:10:05.926Z,29.4
2018-09-30T07:12:05.111Z,29.2
2018-09-30T07:14:05.813Z,29.3
2018-09-30T07:16:10.514Z,29.3
2018-09-30T07:18:05.417Z,29.3
2018-09-30T07:20:05.121Z,29.3
2018-09-30T07:22:05.905Z,29.4
2018-09-30T07:24:05.630Z,29.4
2018-09-30T07:26:05.339Z,29.4
2018-09-30T07:28:05.568Z,29.3
2018-09-30T07:30:05.243Z,29.4
2018-09-30T07:32:05.960Z,29.4
2018-09-30T07:34:05.649Z,29.5
2018-09-30T07:36:05.855Z,29.6
2018-09-30T07:38:05.146Z,29.5
2018-09-30T07:40:05.788Z,29.6
2018-09-30T07:42:06.000Z,29.6
2018-09-30T07:44:05.706Z,29.4
2018-09-30T07:46:05.419Z,29.5
2018-09-30T07:48:05.164Z,29.7
2018-09-30T07:50:05.938Z,29.7
2018-09-30T07:52:05.618Z,29.2
2018-09-30T07:54:05.320Z,29.1
2018-09-30T07:56:05.120Z,28.9
2018-09-30T07:58:13.685Z,28.3
2018-09-30T08:00:05.372Z,28.4
2018-09-30T08:02:05.116Z,28.4
2018-09-30T08:04:05.850Z,28.7
2018-09-30T08:06:08.120Z,28.5
2018-09-30T08:08:05.833Z,28.6
2018-09-30T08:10:08.750Z,28.6
2018-09-30T08:12:05.658Z,28.5
2018-09-30T08:14:05.422Z,28.5
2018-09-30T08:16:05.311Z,28.5
2018-09-30T08:18:07.742Z,28.8
2018-09-30T08:20:05.469Z,28.8
2018-09-30T08:22:07.748Z,29
2018-09-30T08:24:05.764Z,29
2018-09-30T08:26:05.374Z,29
2018-09-30T08:28:05.134Z,28.8
2018-09-30T08:30:05.804Z,28.7
2018-09-30T08:32:05.560Z,28.6
2018-09-30T08:34:05.267Z,28.5
2018-09-30T08:36:11.095Z,28.6
2018-09-30T08:38:05.865Z,28.6
2018-09-30T08:40:08.111Z,28.8
2018-09-30T08:42:05.211Z,28.8
2018-09-30T08:44:05.771Z,28.5
2018-09-30T08:46:13.264Z,28.8
2018-09-30T08:48:05.950Z,28.8
2018-09-30T08:50:05.626Z,28.5
2018-09-30T08:52:05.271Z,28.5
2018-09-30T08:54:08.478Z,28.8
2018-09-30T08:56:05.406Z,28.8
2018-09-30T08:58:05.892Z,28.4
2018-09-30T09:00:05.620Z,28.5
2018-09-30T09:02:06.071Z,28.6
2018-09-30T09:04:05.757Z,28.6
2018-09-30T09:06:05.131Z,28.5
2018-09-30T09:08:05.859Z,28.2
2018-09-30T09:10:07.679Z,28.3
2018-09-30T09:12:05.687Z,28.3
2018-09-30T09:14:10.516Z,27.9
2018-09-30T09:16:05.191Z,27.9
2018-09-30T09:18:05.064Z,27.8
2018-09-30T09:20:08.378Z,27.4
2018-09-30T09:22:05.073Z,27.3
2018-09-30T09:24:05.387Z,27.5
2018-09-30T09:26:05.641Z,27.5
2018-09-30T09:28:05.438Z,27.2
2018-09-30T09:30:05.483Z,27.1
2018-09-30T09:32:05.187Z,27.1
2018-09-30T09:34:05.894Z,27.1
2018-09-30T09:36:05.570Z,27
2018-09-30T09:38:05.277Z,27.1
2018-09-30T09:40:05.971Z,27.1
2018-09-30T09:42:08.268Z,26.9
2018-09-30T09:44:06.980Z,26.9
2018-09-30T09:46:05.898Z,26.9
2018-09-30T09:48:05.801Z,26.8
2018-09-30T09:50:08.893Z,26.9
2018-09-30T09:52:05.724Z,26.8
2018-09-30T09:54:05.471Z,26.8
2018-09-30T09:56:05.156Z,26.5
2018-09-30T09:58:05.834Z,26.7
2018-09-30T10:00:05.607Z,26.6
2018-09-30T10:02:05.350Z,26.8
2018-09-30T10:04:07.525Z,27
2018-09-30T10:06:05.316Z,26.8
2018-09-30T10:08:05.712Z,27.2
2018-09-30T10:10:05.466Z,27.3
2018-09-30T10:12:10.291Z,27.4
2018-09-30T10:14:06.056Z,27.5
2018-09-30T10:16:08.329Z,27.3
2018-09-30T10:18:10.289Z,27.3
2018-09-30T10:20:08.096Z,27.3
2018-09-30T10:22:05.998Z,27.3
2018-09-30T10:24:10.287Z,27.3
2018-09-30T10:26:06.038Z,27.3
2018-09-30T10:28:05.763Z,27.3
2018-09-30T10:30:05.482Z,27.4
2018-09-30T10:32:05.180Z,27.3
2018-09-30T10:34:08.385Z,27.3
2018-09-30T10:36:05.108Z,27.5
2018-09-30T10:38:05.544Z,27.4
2018-09-30T10:40:07.736Z,27.6
2018-09-30T10:42:06.024Z,27.6
2018-09-30T10:44:08.411Z,27.6
2018-09-30T10:46:05.139Z,27.5
2018-09-30T10:48:09.407Z,27.4
2018-09-30T10:50:05.144Z,27.2
2018-09-30T10:52:05.346Z,27.4
2018-09-30T10:54:05.047Z,27.7
2018-09-30T10:56:05.757Z,27.5
2018-09-30T10:58:05.464Z,27.6
2018-09-30T11:00:07.691Z,28
2018-09-30T11:02:05.509Z,28
2018-09-30T11:04:05.244Z,28.3
2018-09-30T11:06:08.020Z,28.1
2018-09-30T11:08:15.637Z,28
2018-09-30T11:10:05.536Z,28
2018-09-30T11:12:05.573Z,27.6
2018-09-30T11:14:05.896Z,28.1
2018-09-30T11:16:10.898Z,28.4
2018-09-30T11:18:05.095Z,28.4
2018-09-30T11:20:05.778Z,28.4
2018-09-30T11:22:06.990Z,28.3
2018-09-30T11:24:05.659Z,28.3
2018-09-30T11:26:10.446Z,28.2
2018-09-30T11:28:10.295Z,28.3
2018-09-30T11:30:06.019Z,28.3
2018-09-30T11:32:05.934Z,28.5
2018-09-30T11:34:05.690Z,28.7
2018-09-30T11:36:10.495Z,28.9
2018-09-30T11:38:05.218Z,28.8
2018-09-30T11:40:05.932Z,28.8
2018-09-30T11:42:05.194Z,29
2018-09-30T11:44:06.057Z,29
2018-09-30T11:46:05.794Z,28.8
2018-09-30T11:48:06.046Z,29
2018-09-30T11:50:07.822Z,28.9
2018-09-30T11:52:08.076Z,28.9
2018-09-30T11:54:07.859Z,28.9
2018-09-30T11:56:05.580Z,28.9
2018-09-30T11:58:05.320Z,28.9
2018-09-30T12:00:06.041Z,28.9
2018-09-30T12:02:10.934Z,28.7
2018-09-30T12:04:05.744Z,28.7
2018-09-30T12:06:08.517Z,28.8
2018-09-30T12:08:05.269Z,28.8
2018-09-30T12:10:05.925Z,28.8
2018-09-30T12:12:05.726Z,28.8
2018-09-30T12:14:05.538Z,28.8
2018-09-30T12:16:05.231Z,28.9
2018-09-30T12:18:05.112Z,28.9
2018-09-30T12:20:05.787Z,28.9
2018-09-30T12:22:05.477Z,28.9
2018-09-30T12:24:05.794Z,28.9
2018-09-30T12:26:08.276Z,28.8
2018-09-30T12:28:05.535Z,28.8
2018-09-30T12:30:05.593Z,28.8
2018-09-30T12:32:05.392Z,29
2018-09-30T12:34:05.513Z,28.8
2018-09-30T12:36:08.566Z,28.5
2018-09-30T12:38:34.900Z,28.5
2018-09-30T12:40:40.656Z,28.4
2018-09-30T12:42:21.841Z,28.3
2018-09-30T12:44:13.798Z,28.1
2018-09-30T12:46:05.053Z,28.1
2018-09-30T12:48:11.124Z,28
2018-09-30T12:50:37.068Z,28.1
2018-09-30T12:52:08.275Z,28.2
2018-09-30T12:54:08.482Z,28.2
2018-09-30T12:56:10.150Z,28.1
2018-09-30T12:58:05.497Z,28
2018-09-30T13:00:10.330Z,28.1
2018-09-30T13:02:05.958Z,28.1
2018-09-30T13:04:10.782Z,28.1
2018-09-30T13:06:05.459Z,28.2
2018-09-30T13:08:07.808Z,28
2018-09-30T13:10:08.076Z,28.2
2018-09-30T13:12:05.790Z,28
2018-09-30T13:14:05.545Z,28.2
2018-09-30T13:16:05.266Z,28
2018-09-30T13:18:05.212Z,28.1
2018-09-30T13:20:11.008Z,28.2
2018-09-30T13:22:10.766Z,28.3
2018-09-30T13:24:08.043Z,28.3
2018-09-30T13:26:07.912Z,28.4
2018-09-30T13:28:05.594Z,28.4
2018-09-30T13:30:05.336Z,28.3
2018-09-30T13:32:10.064Z,28.4
2018-09-30T13:34:05.762Z,28.4
2018-09-30T13:36:05.423Z,28.4
2018-09-30T13:38:05.162Z,28.4
2018-09-30T13:40:11.247Z,28.4
2018-09-30T13:42:10.384Z,28.4
2018-09-30T13:44:05.131Z,28.4
2018-09-30T13:46:11.031Z,28.5
2018-09-30T13:48:10.601Z,28.5
2018-09-30T13:50:07.967Z,28.5
2018-09-30T13:52:05.765Z,28.5
2018-09-30T13:54:08.002Z,28.7
2018-09-30T13:56:05.707Z,28.5
2018-09-30T13:58:05.435Z,28.8
2018-09-30T14:00:05.133Z,28.7
2018-09-30T14:02:05.889Z,28.5
2018-09-30T14:04:05.690Z,28.7
2018-09-30T14:06:07.955Z,28.4
2018-09-30T14:08:05.778Z,28.4
2018-09-30T14:10:05.516Z,28.2
2018-09-30T14:12:05.740Z,28.5
2018-09-30T14:14:05.511Z,28.3
2018-09-30T14:16:05.192Z,28.4
2018-09-30T14:18:05.101Z,28.4
2018-09-30T14:20:05.893Z,28.4
2018-09-30T14:22:05.604Z,28.3
2018-09-30T14:24:05.359Z,28.5
2018-09-30T14:26:10.081Z,28.5
2018-09-30T14:28:05.761Z,28.5
2018-09-30T14:30:08.043Z,28.5
2018-09-30T14:32:05.742Z,28.5
2018-09-30T14:34:05.620Z,28.4
2018-09-30T14:36:08.007Z,28.3
2018-09-30T14:38:05.713Z,28.3
2018-09-30T14:40:05.474Z,28.3
2018-09-30T14:42:07.672Z,28.4
2018-09-30T14:44:05.539Z,28.5
2018-09-30T14:46:07.843Z,28.4
2018-09-30T14:48:10.825Z,28.5
2018-09-30T14:50:05.435Z,28.4
2018-09-30T14:52:09.572Z,28.6
2018-09-30T14:54:06.293Z,28.6
2018-09-30T14:56:05.605Z,28.6
2018-09-30T14:58:05.334Z,28.6
2018-09-30T15:00:10.140Z,28.5
2018-09-30T15:02:05.870Z,28.5
2018-09-30T15:04:05.624Z,28.4
2018-09-30T15:06:06.014Z,28.5
2018-09-30T15:08:08.022Z,28.4
2018-09-30T15:10:05.252Z,28.4
2018-09-30T15:12:07.998Z,28.7
2018-09-30T15:14:10.804Z,28.5
2018-09-30T15:16:05.027Z,28.5
2018-09-30T15:18:05.999Z,28.7
2018-09-30T15:20:05.227Z,28.5
2018-09-30T15:22:05.921Z,28.5
2018-09-30T15:24:05.634Z,28.5
2018-09-30T15:26:05.885Z,28.5
2018-09-30T15:28:05.561Z,28.7
2018-09-30T15:30:08.000Z,28.4
2018-09-30T15:32:05.796Z,28.5
2018-09-30T15:34:05.537Z,28.4
2018-09-30T15:36:05.293Z,28.5
2018-09-30T15:38:06.017Z,28.5
2018-09-30T15:40:05.710Z,28.4
2018-09-30T15:42:07.953Z,28.2
2018-09-30T15:44:05.741Z,28.2
2018-09-30T15:46:05.452Z,28.3
2018-09-30T15:48:05.159Z,28.2
2018-09-30T15:50:07.959Z,28.3
2018-09-30T15:52:05.718Z,28.2
2018-09-30T15:54:05.364Z,28.4
2018-09-30T15:56:05.666Z,28.4
2018-09-30T15:58:05.350Z,28.4
2018-09-30T16:00:05.038Z,28.4
2018-09-30T16:02:05.288Z,28.4
2018-09-30T16:04:08.024Z,28.4
2018-09-30T16:06:10.788Z,28.2
2018-09-30T16:08:05.481Z,28.2
2018-09-30T16:10:05.186Z,28.2
2018-09-30T16:12:08.745Z,28.3
2018-09-30T16:14:11.279Z,28.3
2018-09-30T16:16:05.404Z,28.2
2018-09-30T16:18:05.400Z,28.3
2018-09-30T16:20:05.296Z,28.3
2018-09-30T16:22:05.997Z,28.3
2018-09-30T16:24:05.227Z,28.3
2018-09-30T16:26:05.949Z,28.3
2018-09-30T16:28:05.725Z,28.2
2018-09-30T16:30:05.591Z,28.2
2018-09-30T16:32:05.287Z,28.1
2018-09-30T16:34:05.477Z,28.1
2018-09-30T16:36:05.678Z,28.1
2018-09-30T16:38:05.433Z,28.1
2018-09-30T16:40:05.379Z,28.2
2018-09-30T16:42:07.876Z,28.2
2018-09-30T16:44:05.634Z,28.1
2018-09-30T16:46:05.288Z,28.2
2018-09-30T16:48:05.963Z,28.1
2018-09-30T16:50:08.239Z,28.2
2018-09-30T16:52:05.974Z,28.2
2018-09-30T16:54:05.198Z,28.2
2018-09-30T16:56:05.527Z,28.2
2018-09-30T16:58:05.241Z,28.2
2018-09-30T17:00:05.936Z,28.2
2018-09-30T17:02:05.660Z,28.3
2018-09-30T17:04:05.467Z,28.3
2018-09-30T17:06:06.620Z,28.3
2018-09-30T17:08:05.375Z,28.2
2018-09-30T17:10:10.230Z,28.3
2018-09-30T17:12:05.940Z,28.1
2018-09-30T17:14:05.660Z,28.3
2018-09-30T17:16:05.680Z,28.1
2018-09-30T17:18:05.333Z,28.3
2018-09-30T17:20:05.068Z,28.1
2018-09-30T17:22:05.824Z,28.1
2018-09-30T17:24:05.547Z,28.2
2018-09-30T17:26:05.312Z,28.3
2018-09-30T17:28:05.605Z,28.1
2018-09-30T17:30:05.866Z,28.1
2018-09-30T17:32:08.191Z,28.1
2018-09-30T17:34:05.894Z,28.1
2018-09-30T17:36:05.552Z,28
2018-09-30T17:38:05.347Z,28.1
2018-09-30T17:40:05.094Z,28.1
2018-09-30T17:42:05.846Z,28
2018-09-30T17:44:05.699Z,28.1
2018-09-30T17:46:05.385Z,28.1
2018-09-30T17:48:07.618Z,28
2018-09-30T17:50:05.354Z,28
2018-09-30T17:52:05.123Z,28.2
2018-09-30T17:54:05.838Z,28.3
2018-09-30T17:56:10.908Z,28.4
2018-09-30T17:58:05.719Z,28.4
2018-09-30T18:00:05.373Z,28.6
2018-09-30T18:02:05.140Z,28.5
2018-09-30T18:04:08.567Z,28.8
2018-09-30T18:06:05.565Z,28.8
2018-09-30T18:08:05.388Z,29.5
2018-09-30T18:10:07.685Z,29.5
2018-09-30T18:12:05.378Z,29.5
2018-09-30T18:14:05.181Z,29.6
2018-09-30T18:16:05.958Z,29.8
2018-09-30T18:18:05.468Z,29.4
2018-09-30T18:20:05.311Z,29.8
2018-09-30T18:22:06.034Z,29.7
2018-09-30T18:24:05.877Z,29.9
2018-09-30T18:26:08.091Z,30.3
2018-09-30T18:28:08.346Z,30.1
2018-09-30T18:30:05.252Z,30.1
2018-09-30T18:32:05.968Z,30
2018-09-30T18:34:05.232Z,30
2018-09-30T18:36:05.966Z,29.9
2018-09-30T18:38:05.764Z,29.9
2018-09-30T18:40:08.100Z,30
2018-09-30T18:42:08.545Z,30
2018-09-30T18:44:05.269Z,30
2018-09-30T18:46:05.985Z,30
2018-09-30T18:48:05.979Z,30
2018-09-30T18:50:05.756Z,30
2018-09-30T18:52:05.497Z,30
2018-09-30T18:54:05.249Z,30.1
2018-09-30T18:56:07.912Z,30.2
2018-09-30T18:58:06.079Z,30
2018-09-30T19:00:05.833Z,30.3
2018-09-30T19:02:07.710Z,30.4
2018-09-30T19:04:05.646Z,30.3
2018-09-30T19:06:05.381Z,30.4
2018-09-30T19:08:05.320Z,30.3
2018-09-30T19:10:06.001Z,30.2
2018-09-30T19:12:05.898Z,30.3
2018-09-30T19:14:06.005Z,30.2
2018-09-30T19:16:05.586Z,30.3
2018-09-30T19:18:05.954Z,30.3
2018-09-30T19:20:05.695Z,30.4
2018-09-30T19:22:05.406Z,30.4
2018-09-30T19:24:05.091Z,30.4
2018-09-30T19:26:05.473Z,30.4
2018-09-30T19:28:10.451Z,30.6
2018-09-30T19:30:05.231Z,30.5
2018-09-30T19:32:05.665Z,30.5
2018-09-30T19:34:05.197Z,30.8
2018-09-30T19:36:08.535Z,30.8
2018-09-30T19:38:05.446Z,30.5
2018-09-30T19:40:05.162Z,30.7
2018-09-30T19:42:05.075Z,30.7
2018-09-30T19:44:08.351Z,30.6
2018-09-30T19:46:05.133Z,30.6
2018-09-30T19:48:05.451Z,30.7
2018-09-30T19:50:05.602Z,30.6
2018-09-30T19:52:05.546Z,30.7
2018-09-30T19:54:05.431Z,30.9
2018-09-30T19:56:05.743Z,30.9
2018-09-30T19:58:07.950Z,30.9
2018-09-30T20:00:06.626Z,30.9
2018-09-30T20:02:05.579Z,31
2018-09-30T20:04:05.337Z,30.8
2018-09-30T20:06:07.608Z,30.9
2018-09-30T20:08:05.343Z,30.9
2018-09-30T20:10:05.795Z,30.9
2018-09-30T20:12:05.552Z,30.9
2018-09-30T20:14:05.386Z,31.1
2018-09-30T20:16:05.099Z,30.9
2018-09-30T20:18:05.995Z,30.9
2018-09-30T20:20:05.695Z,30.9
2018-09-30T20:22:05.616Z,30.9
2018-09-30T20:24:05.900Z,30.9
2018-09-30T20:26:08.939Z,30.9
2018-09-30T20:28:12.663Z,31.1
2018-09-30T20:30:08.177Z,31.1
2018-09-30T20:32:05.753Z,31.1
2018-09-30T20:34:06.159Z,31.1
2018-09-30T20:36:05.594Z,31.2
2018-09-30T20:38:16.019Z,31.2
2018-09-30T20:40:06.902Z,31.2
2018-09-30T20:42:16.260Z,31.1
2018-09-30T20:44:10.963Z,31.2
2018-09-30T20:46:08.230Z,31.2
2018-09-30T20:48:08.471Z,31.3
2018-09-30T20:50:05.182Z,31.2
2018-09-30T20:52:13.468Z,31.3
2018-09-30T20:54:05.136Z,31.2
2018-09-30T20:56:08.497Z,31.3
2018-09-30T20:58:08.302Z,31.3
2018-09-30T21:00:05.050Z,31.3
2018-09-30T21:02:05.395Z,31.2
2018-09-30T21:04:05.046Z,31.5
2018-09-30T21:06:05.801Z,31.3
2018-09-30T21:08:05.535Z,31.4
2018-09-30T21:10:05.281Z,31.5
2018-09-30T21:12:11.038Z,31.5
2018-09-30T21:14:08.260Z,31.6
2018-09-30T21:16:08.539Z,31.4
2018-09-30T21:18:07.968Z,31.5
2018-09-30T21:20:05.683Z,31.6
2018-09-30T21:22:05.472Z,31.5
2018-09-30T21:24:05.732Z,31.6
2018-09-30T21:26:08.044Z,31.7
2018-09-30T21:28:05.289Z,31.7
2018-09-30T21:30:06.074Z,31.7
2018-09-30T21:32:05.791Z,31.7
2018-09-30T21:34:08.166Z,32
2018-09-30T21:36:05.525Z,32
2018-09-30T21:38:08.611Z,32.3
2018-09-30T21:40:05.529Z,32.3
2018-09-30T21:42:10.443Z,32.1
2018-09-30T21:44:05.815Z,32.2
2018-09-30T21:46:08.026Z,32.1
2018-09-30T21:48:06.790Z,32.2
2018-09-30T21:50:10.595Z,32.2
2018-09-30T21:52:05.825Z,32.3
2018-09-30T21:54:05.720Z,32
2018-09-30T21:56:05.393Z,32
2018-09-30T21:58:05.224Z,32.3
2018-09-30T22:00:05.892Z,32
2018-09-30T22:02:13.194Z,32.4
2018-09-30T22:04:13.521Z,32.3
2018-09-30T22:06:10.456Z,32.4
2018-09-30T22:08:05.159Z,32.4
2018-09-30T22:10:05.941Z,32.4
2018-09-30T22:12:08.286Z,32.4
2018-09-30T22:14:06.038Z,32.4
2018-09-30T22:16:08.276Z,32.1
2018-09-30T22:18:05.157Z,32.1
2018-09-30T22:20:05.851Z,32.1
2018-09-30T22:22:08.125Z,31.9
2018-09-30T22:24:05.838Z,31.9
2018-09-30T22:26:10.539Z,31.8
2018-09-30T22:28:07.787Z,31.8
2018-09-30T22:30:05.029Z,31.8
2018-09-30T22:32:08.292Z,31.9
2018-09-30T22:34:05.980Z,31.9
2018-09-30T22:36:08.295Z,32
2018-09-30T22:38:06.037Z,31.9
2018-09-30T22:40:05.798Z,32
2018-09-30T22:42:05.721Z,32
2018-09-30T22:44:08.034Z,31.9
2018-09-30T22:46:08.243Z,32
2018-09-30T22:48:05.965Z,31.9
2018-09-30T22:50:05.715Z,32.2
2018-09-30T22:52:05.387Z,32.1
2018-09-30T22:54:05.118Z,32.2
2018-09-30T22:56:06.041Z,32.3
2018-09-30T22:58:05.744Z,32.3
2018-09-30T23:00:05.467Z,32.2
2018-09-30T23:02:05.197Z,32.3
2018-09-30T23:04:05.382Z,32.3
2018-09-30T23:06:05.322Z,32.2
2018-09-30T23:08:05.108Z,32.3
2018-09-30T23:10:05.917Z,32.5
2018-09-30T23:12:05.564Z,32.3
2018-09-30T23:14:10.344Z,32.3
2018-09-30T23:16:05.630Z,32.3
2018-09-30T23:18:05.569Z,32.3
2018-09-30T23:20:16.006Z,32.3
2018-09-30T23:22:05.957Z,32.3
2018-09-30T23:24:05.755Z,32.3
2018-09-30T23:26:05.480Z,32.3
2018-09-30T23:28:07.764Z,32.3
2018-09-30T23:30:05.487Z,32.3
2018-09-30T23:32:05.784Z,32.3
2018-09-30T23:34:05.496Z,32.3
2018-09-30T23:36:05.227Z,32.3
2018-09-30T23:38:05.895Z,32.3
2018-09-30T23:40:05.198Z,32.3
2018-09-30T23:42:05.998Z,32.3
2018-09-30T23:44:07.759Z,32.3
2018-09-30T23:46:05.988Z,32.3
2018-09-30T23:48:05.225Z,32.3
2018-09-30T23:50:08.482Z,32.3
2018-09-30T23:52:05.196Z,32.3
2018-09-30T23:54:05.902Z,32.3
2018-09-30T23:56:05.643Z,32.3
2018-09-30T23:58:05.572Z,32.3
